createdAt,value
2022-08-25T00:01:24.415Z,18.80
2022-08-25T00:06:29.543Z,18.80
2022-08-25T00:08:59.991Z,18.80
2022-08-25T00:11:30.475Z,18.70
2022-08-25T00:14:01.333Z,18.70
2022-08-25T00:16:31.522Z,18.70
2022-08-25T00:19:01.882Z,18.60
2022-08-25T00:21:31.607Z,18.60
2022-08-25T00:24:03.295Z,18.50
2022-08-25T00:26:31.314Z,18.50
2022-08-25T00:29:01.619Z,18.50
2022-08-25T00:31:38.157Z,18.40
2022-08-25T00:34:08.486Z,18.50
2022-08-25T00:36:36.607Z,18.40
2022-08-25T00:39:07.070Z,18.40
2022-08-25T00:41:36.121Z,18.40
2022-08-25T00:44:07.683Z,18.30
2022-08-25T00:46:38.768Z,18.30
2022-08-25T00:49:20.856Z,18.20
2022-08-25T00:51:58.872Z,18.30
2022-08-25T00:54:31.390Z,18.20
2022-08-25T00:57:01.157Z,18.20
2022-08-25T00:59:29.527Z,18.20
2022-08-25T01:01:59.076Z,18.20
2022-08-25T01:04:28.179Z,18.20
2022-08-25T01:06:57.828Z,18.20
2022-08-25T01:09:27.581Z,18.20
2022-08-25T01:11:55.982Z,18.20
2022-08-25T01:14:26.472Z,18.20
2022-08-25T01:16:54.609Z,18.20
2022-08-25T01:19:23.470Z,18.10
2022-08-25T01:21:54.535Z,18.10
2022-08-25T01:24:27.185Z,18.10
2022-08-25T01:26:55.218Z,18.00
2022-08-25T01:29:25.415Z,17.90
2022-08-25T01:31:57.757Z,17.90
2022-08-25T01:34:27.575Z,17.90
2022-08-25T01:36:58.149Z,17.90
2022-08-25T01:39:27.542Z,17.90
2022-08-25T01:42:05.515Z,17.90
2022-08-25T01:44:36.175Z,17.90
2022-08-25T01:47:06.195Z,17.80
2022-08-25T01:49:34.260Z,17.80
2022-08-25T01:52:07.988Z,17.80
2022-08-25T01:54:35.930Z,17.80
2022-08-25T01:57:04.094Z,17.80
2022-08-25T01:59:32.105Z,17.80
2022-08-25T02:02:00.384Z,17.80
2022-08-25T02:04:32.133Z,17.80
2022-08-25T02:07:00.661Z,17.80
2022-08-25T02:09:30.825Z,17.80
2022-08-25T02:11:59.309Z,17.80
2022-08-25T02:14:28.617Z,17.80
2022-08-25T02:16:57.218Z,17.80
2022-08-25T02:19:26.987Z,17.80
2022-08-25T02:21:55.875Z,17.80
2022-08-25T02:24:23.992Z,17.80
2022-08-25T02:26:53.603Z,17.80
2022-08-25T02:29:21.595Z,17.80
2022-08-25T02:31:49.612Z,17.80
2022-08-25T02:34:18.078Z,17.70
2022-08-25T02:36:46.239Z,17.70
2022-08-25T02:39:14.287Z,17.70
2022-08-25T02:41:42.441Z,17.70
2022-08-25T02:44:11.763Z,17.70
2022-08-25T02:46:40.188Z,17.70
2022-08-25T02:49:09.003Z,17.70
2022-08-25T02:51:37.593Z,17.70
2022-08-25T02:54:07.163Z,17.60
2022-08-25T02:56:35.324Z,17.60
2022-08-25T02:59:03.675Z,17.60
2022-08-25T03:01:33.858Z,17.50
2022-08-25T03:04:02.861Z,17.50
2022-08-25T03:06:31.651Z,17.50
2022-08-25T03:08:59.883Z,17.50
2022-08-25T03:11:28.138Z,17.40
2022-08-25T03:13:56.870Z,17.40
2022-08-25T03:16:27.701Z,17.50
2022-08-25T03:18:57.838Z,17.40
2022-08-25T03:21:25.967Z,17.40
2022-08-25T03:23:54.257Z,17.40
2022-08-25T03:26:39.860Z,17.30
2022-08-25T03:29:08.050Z,17.30
2022-08-25T03:31:36.745Z,17.30
2022-08-25T03:34:06.706Z,17.30
2022-08-25T03:36:34.735Z,17.30
2022-08-25T03:39:02.719Z,17.20
2022-08-25T03:41:32.737Z,17.30
2022-08-25T03:44:01.672Z,17.30
2022-08-25T03:46:31.554Z,17.20
2022-08-25T03:49:01.125Z,17.20
2022-08-25T03:51:33.388Z,17.20
2022-08-25T03:54:02.579Z,17.20
2022-08-25T03:56:30.623Z,17.20
2022-08-25T03:58:58.735Z,17.20
2022-08-25T04:01:27.109Z,17.20
2022-08-25T04:03:55.180Z,17.10
2022-08-25T04:06:23.746Z,17.10
2022-08-25T04:08:53.599Z,17.10
2022-08-25T04:11:23.975Z,17.10
2022-08-25T04:13:53.138Z,17.00
2022-08-25T04:16:23.007Z,17.00
2022-08-25T04:18:52.323Z,16.90
2022-08-25T04:21:21.364Z,16.90
2022-08-25T04:23:50.663Z,16.90
2022-08-25T04:26:23.041Z,16.90
2022-08-25T04:28:51.293Z,16.90
2022-08-25T04:31:22.759Z,16.90
2022-08-25T04:33:51.761Z,16.90
2022-08-25T04:36:20.468Z,17.00
2022-08-25T04:38:50.054Z,17.10
2022-08-25T04:41:21.941Z,17.10
2022-08-25T04:43:50.286Z,17.20
2022-08-25T04:46:21.763Z,17.20
2022-08-25T04:48:50.197Z,17.20
2022-08-25T04:51:20.405Z,17.20
2022-08-25T04:53:48.503Z,17.20
2022-08-25T04:56:19.549Z,17.30
2022-08-25T04:58:47.895Z,17.30
2022-08-25T05:01:18.416Z,17.40
2022-08-25T05:03:48.208Z,17.40
2022-08-25T05:06:16.562Z,17.50
2022-08-25T05:08:45.914Z,17.60
2022-08-25T05:11:17.363Z,17.80
2022-08-25T05:13:51.291Z,17.90
2022-08-25T05:16:20.879Z,18.10
2022-08-25T05:18:49.364Z,18.30
2022-08-25T05:21:20.479Z,18.50
2022-08-25T05:23:49.233Z,18.80
2022-08-25T05:26:20.380Z,19.20
2022-08-25T05:28:51.430Z,19.50
2022-08-25T05:31:20.948Z,19.70
2022-08-25T05:33:49.262Z,19.80
2022-08-25T05:36:18.242Z,20.00
2022-08-25T05:38:46.391Z,20.20
2022-08-25T05:41:16.498Z,20.20
2022-08-25T05:43:46.227Z,20.30
2022-08-25T05:46:16.712Z,20.30
2022-08-25T05:48:44.841Z,20.30
2022-08-25T05:51:15.032Z,20.40
2022-08-25T05:53:44.871Z,20.40
2022-08-25T05:56:14.270Z,20.40
2022-08-25T05:58:43.240Z,20.50
2022-08-25T06:01:37.083Z,20.50
2022-08-25T06:04:06.723Z,20.50
2022-08-25T06:06:34.645Z,20.60
2022-08-25T06:09:05.297Z,20.70
2022-08-25T06:11:33.496Z,20.70
2022-08-25T06:14:01.436Z,20.70
2022-08-25T06:16:29.493Z,20.80
2022-08-25T06:18:57.646Z,20.80
2022-08-25T06:21:27.559Z,20.90
2022-08-25T06:23:55.868Z,21.00
2022-08-25T06:26:24.566Z,21.00
2022-08-25T06:28:53.961Z,21.10
2022-08-25T06:31:23.132Z,21.20
2022-08-25T06:33:52.436Z,21.30
2022-08-25T06:36:21.507Z,21.40
2022-08-25T06:38:50.805Z,21.40
2022-08-25T06:41:18.983Z,21.50
2022-08-25T06:43:50.767Z,21.50
2022-08-25T06:46:36.604Z,21.50
2022-08-25T06:49:05.566Z,21.50
2022-08-25T06:51:36.137Z,21.40
2022-08-25T06:54:06.936Z,21.50
2022-08-25T06:56:35.869Z,21.50
2022-08-25T06:59:05.304Z,21.60
2022-08-25T07:01:34.098Z,21.70
2022-08-25T07:04:07.644Z,21.70
2022-08-25T07:06:38.721Z,21.80
2022-08-25T07:09:10.889Z,21.90
2022-08-25T07:11:39.382Z,21.90
2022-08-25T07:14:09.538Z,22.00
2022-08-25T07:16:38.728Z,22.10
2022-08-25T07:19:10.548Z,22.20
2022-08-25T07:21:45.760Z,22.50
2022-08-25T07:24:16.461Z,22.60
2022-08-25T07:26:46.730Z,22.60
2022-08-25T07:29:17.512Z,22.70
2022-08-25T07:31:46.456Z,22.70
2022-08-25T07:34:32.566Z,22.70
2022-08-25T07:37:00.595Z,22.80
2022-08-25T07:39:30.031Z,22.90
2022-08-25T07:41:59.362Z,23.00
2022-08-25T07:44:28.711Z,23.00
2022-08-25T07:46:56.883Z,23.10
2022-08-25T07:49:27.102Z,23.10
2022-08-25T07:52:06.630Z,23.00
2022-08-25T07:54:38.025Z,23.00
2022-08-25T07:57:08.347Z,23.20
2022-08-25T07:59:39.666Z,23.40
2022-08-25T08:02:18.081Z,23.40
2022-08-25T08:04:48.853Z,23.50
2022-08-25T08:07:18.947Z,23.60
2022-08-25T08:09:56.222Z,23.60
2022-08-25T08:12:34.793Z,23.70
2022-08-25T08:15:04.940Z,23.60
2022-08-25T08:17:39.566Z,23.70
2022-08-25T08:20:09.632Z,23.70
2022-08-25T08:22:41.002Z,23.80
2022-08-25T08:25:18.658Z,24.00
2022-08-25T08:27:50.818Z,24.00
2022-08-25T08:30:23.716Z,24.00
2022-08-25T08:33:09.047Z,24.10
2022-08-25T08:35:37.695Z,24.20
2022-08-25T08:38:14.491Z,24.40
2022-08-25T08:41:23.013Z,24.70
2022-08-25T08:43:56.516Z,24.80
2022-08-25T08:46:38.971Z,25.00
2022-08-25T08:49:22.938Z,25.20
2022-08-25T08:52:00.033Z,25.40
2022-08-25T08:54:32.699Z,25.40
2022-08-25T08:57:12.728Z,25.70
2022-08-25T08:59:48.684Z,25.70
2022-08-25T09:02:39.384Z,25.70
2022-08-25T09:05:20.010Z,25.70
2022-08-25T09:07:54.911Z,25.90
2022-08-25T09:10:25.709Z,25.90
2022-08-25T09:13:08.731Z,25.90
2022-08-25T09:16:06.968Z,25.80
2022-08-25T09:18:51.452Z,25.60
2022-08-25T09:21:32.202Z,25.50
2022-08-25T09:24:18.599Z,25.60
2022-08-25T09:26:55.216Z,25.50
2022-08-25T09:29:31.917Z,25.50
2022-08-25T09:32:04.074Z,25.50
2022-08-25T09:34:35.049Z,25.60
2022-08-25T09:37:03.143Z,25.80
2022-08-25T09:39:31.238Z,25.90
2022-08-25T09:42:01.144Z,26.00
2022-08-25T09:44:33.634Z,25.90
2022-08-25T09:47:08.430Z,25.80
2022-08-25T09:49:40.333Z,25.90
2022-08-25T09:52:25.940Z,26.00
2022-08-25T09:54:55.684Z,26.00
2022-08-25T09:57:35.770Z,26.20
2022-08-25T10:00:18.553Z,26.10
2022-08-25T10:03:05.757Z,25.90
2022-08-25T10:05:36.626Z,25.80
2022-08-25T10:08:14.582Z,25.90
2022-08-25T10:10:48.239Z,25.90
2022-08-25T10:13:23.418Z,25.80
2022-08-25T10:16:20.619Z,25.80
2022-08-25T10:19:06.871Z,26.00
2022-08-25T10:21:36.763Z,26.10
2022-08-25T10:24:06.183Z,26.30
2022-08-25T10:26:49.141Z,26.40
2022-08-25T10:29:34.910Z,26.60
2022-08-25T10:32:12.254Z,26.80
2022-08-25T10:34:51.836Z,26.90
2022-08-25T10:37:32.917Z,27.10
2022-08-25T10:40:14.214Z,27.30
2022-08-25T10:43:02.441Z,27.30
2022-08-25T10:45:46.332Z,27.20
2022-08-25T10:48:38.085Z,27.10
2022-08-25T10:51:18.849Z,27.20
2022-08-25T10:53:58.280Z,27.20
2022-08-25T10:56:30.323Z,27.20
2022-08-25T10:59:31.663Z,27.20
2022-08-25T11:02:38.443Z,26.90
2022-08-25T11:05:16.395Z,26.70
2022-08-25T11:07:56.211Z,26.70
2022-08-25T11:10:27.927Z,26.80
2022-08-25T11:12:59.483Z,26.80
2022-08-25T11:15:33.219Z,26.80
2022-08-25T11:18:06.584Z,26.70
2022-08-25T11:20:51.655Z,26.80
2022-08-25T11:23:25.424Z,26.90
2022-08-25T11:25:55.457Z,26.90
2022-08-25T11:28:32.246Z,26.90
2022-08-25T11:31:03.056Z,26.80
2022-08-25T11:33:33.850Z,26.70
2022-08-25T11:36:11.690Z,26.80
2022-08-25T11:38:49.612Z,26.90
2022-08-25T11:41:28.337Z,27.00
2022-08-25T11:44:11.861Z,27.00
2022-08-25T11:46:51.402Z,26.90
2022-08-25T11:49:40.782Z,26.90
2022-08-25T11:52:43.509Z,26.90
2022-08-25T11:55:14.396Z,26.80
2022-08-25T11:57:51.549Z,26.80
2022-08-25T12:00:43.192Z,26.70
2022-08-25T12:03:44.400Z,26.50
2022-08-25T12:06:18.371Z,26.50
2022-08-25T12:09:21.621Z,26.60
2022-08-25T12:11:58.344Z,26.70
2022-08-25T12:14:48.019Z,26.80
2022-08-25T12:17:39.616Z,26.80
2022-08-25T12:20:08.973Z,26.90
2022-08-25T12:22:54.211Z,27.00
2022-08-25T12:25:39.190Z,27.10
2022-08-25T12:28:28.932Z,27.40
2022-08-25T12:31:09.753Z,27.50
2022-08-25T12:33:53.247Z,27.50
2022-08-25T12:36:33.287Z,27.60
2022-08-25T12:39:19.859Z,27.60
2022-08-25T12:41:59.682Z,27.60
2022-08-25T12:44:41.805Z,27.60
2022-08-25T12:47:31.911Z,27.60
2022-08-25T12:50:44.772Z,27.50
2022-08-25T12:53:18.957Z,27.60
2022-08-25T12:55:51.087Z,27.70
2022-08-25T12:58:20.951Z,27.70
2022-08-25T13:01:17.570Z,27.50
2022-08-25T13:04:26.899Z,27.40
2022-08-25T13:07:06.207Z,27.30
2022-08-25T13:10:19.007Z,27.40
2022-08-25T13:12:51.434Z,27.50
2022-08-25T13:15:34.341Z,27.60
2022-08-25T13:18:17.294Z,27.90
2022-08-25T13:20:47.822Z,28.10
2022-08-25T13:23:21.128Z,28.40
2022-08-25T13:25:51.956Z,28.50
2022-08-25T13:28:28.761Z,28.40
2022-08-25T13:31:01.403Z,28.20
2022-08-25T13:33:30.272Z,28.10
2022-08-25T13:36:17.182Z,28.10
2022-08-25T13:38:47.461Z,28.00
2022-08-25T13:41:29.214Z,28.20
2022-08-25T13:44:01.060Z,28.40
2022-08-25T13:46:31.985Z,28.30
2022-08-25T13:49:06.310Z,28.30
2022-08-25T13:51:34.482Z,28.20
2022-08-25T13:54:05.921Z,28.00
2022-08-25T13:56:40.619Z,27.90
2022-08-25T13:59:24.112Z,27.70
2022-08-25T14:01:55.515Z,27.60
2022-08-25T14:04:32.565Z,27.50
2022-08-25T14:07:19.438Z,27.50
2022-08-25T14:09:52.403Z,27.60
2022-08-25T14:12:33.964Z,28.00
2022-08-25T14:15:06.633Z,28.30
2022-08-25T14:17:39.534Z,28.60
2022-08-25T14:20:19.229Z,28.90
2022-08-25T14:22:47.587Z,29.00
2022-08-25T14:25:16.223Z,28.90
2022-08-25T14:28:06.974Z,28.60
2022-08-25T14:30:36.526Z,28.30
2022-08-25T14:33:07.102Z,28.10
2022-08-25T14:35:35.332Z,28.00
2022-08-25T14:38:08.461Z,28.10
2022-08-25T14:40:37.419Z,28.10
2022-08-25T14:43:05.698Z,28.20
2022-08-25T14:45:40.541Z,28.20
2022-08-25T14:48:14.269Z,28.30
2022-08-25T14:50:42.646Z,28.40
2022-08-25T14:53:12.348Z,28.50
2022-08-25T14:55:40.477Z,28.60
2022-08-25T14:58:08.880Z,28.60
2022-08-25T15:00:41.304Z,28.60
2022-08-25T15:03:13.346Z,28.60
2022-08-25T15:05:41.872Z,28.60
2022-08-25T15:08:33.076Z,28.70
2022-08-25T15:11:01.502Z,28.80
2022-08-25T15:13:36.857Z,28.70
2022-08-25T15:16:05.903Z,28.70
2022-08-25T15:18:35.797Z,28.70
2022-08-25T15:21:04.348Z,28.60
2022-08-25T15:23:32.655Z,28.50
2022-08-25T15:26:03.515Z,28.30
2022-08-25T15:28:33.384Z,28.30
2022-08-25T15:31:01.537Z,28.30
2022-08-25T15:33:30.115Z,28.40
2022-08-25T15:35:59.563Z,28.40
2022-08-25T15:38:27.572Z,28.40
2022-08-25T15:40:56.012Z,28.30
2022-08-25T15:43:26.290Z,28.30
2022-08-25T15:45:54.236Z,28.10
2022-08-25T15:48:22.360Z,28.00
2022-08-25T15:50:55.825Z,27.90
2022-08-25T15:53:26.254Z,27.90
2022-08-25T15:55:54.469Z,27.90
2022-08-25T15:58:22.555Z,28.00
2022-08-25T16:00:56.365Z,27.90
2022-08-25T16:03:25.261Z,27.90
2022-08-25T16:05:53.418Z,27.80
2022-08-25T16:08:21.461Z,27.80
2022-08-25T16:10:50.806Z,27.80
2022-08-25T16:13:19.608Z,27.80
2022-08-25T16:15:54.241Z,27.80
2022-08-25T16:18:22.638Z,27.80
2022-08-25T16:20:51.101Z,27.70
2022-08-25T16:23:20.780Z,27.60
2022-08-25T16:25:51.855Z,27.50
2022-08-25T16:28:20.589Z,27.50
2022-08-25T16:30:53.209Z,27.50
2022-08-25T16:33:21.681Z,27.40
2022-08-25T16:35:49.616Z,27.40
2022-08-25T16:38:17.885Z,27.30
2022-08-25T16:40:46.858Z,27.30
2022-08-25T16:43:17.708Z,27.20
2022-08-25T16:45:46.287Z,27.20
2022-08-25T16:48:14.582Z,27.10
2022-08-25T16:50:42.661Z,27.20
2022-08-25T16:53:28.146Z,27.10
2022-08-25T16:56:02.305Z,27.00
2022-08-25T16:58:33.235Z,26.90
2022-08-25T17:01:06.312Z,26.90
2022-08-25T17:03:37.513Z,26.80
2022-08-25T17:06:07.137Z,26.70
2022-08-25T17:08:37.490Z,26.70
2022-08-25T17:11:09.468Z,26.60
2022-08-25T17:13:44.407Z,26.60
2022-08-25T17:16:14.634Z,26.60
2022-08-25T17:18:43.487Z,26.50
2022-08-25T17:21:24.396Z,26.50
2022-08-25T17:23:53.061Z,26.50
2022-08-25T17:26:27.902Z,26.40
2022-08-25T17:28:59.303Z,26.40
2022-08-25T17:31:28.373Z,26.30
2022-08-25T17:33:58.178Z,26.30
2022-08-25T17:36:26.979Z,26.20
2022-08-25T17:38:56.977Z,26.00
2022-08-25T17:41:25.346Z,25.90
2022-08-25T17:43:53.711Z,25.80
2022-08-25T17:46:23.081Z,25.70
2022-08-25T17:48:52.662Z,25.60
2022-08-25T17:51:21.359Z,25.50
2022-08-25T17:53:50.102Z,25.40
2022-08-25T17:56:20.806Z,25.30
2022-08-25T17:58:49.305Z,25.20
2022-08-25T18:01:19.899Z,25.00
2022-08-25T18:03:51.899Z,24.90
2022-08-25T18:06:21.034Z,24.80
2022-08-25T18:08:56.296Z,24.90
2022-08-25T18:11:26.882Z,25.00
2022-08-25T18:13:57.412Z,24.50
2022-08-25T18:16:26.588Z,24.60
2022-08-25T18:19:03.364Z,24.00
2022-08-25T18:21:36.304Z,23.70
2022-08-25T18:24:21.401Z,23.50
2022-08-25T18:27:05.842Z,22.80
2022-08-25T18:29:44.472Z,23.10
2022-08-25T18:33:05.289Z,23.30
2022-08-25T18:35:34.996Z,23.30
2022-08-25T18:38:21.250Z,23.10
2022-08-25T18:40:49.245Z,23.00
2022-08-25T18:43:17.695Z,22.90
2022-08-25T18:45:48.538Z,22.80
2022-08-25T18:48:18.240Z,22.70
2022-08-25T18:50:50.594Z,22.60
2022-08-25T18:53:30.349Z,22.50
2022-08-25T18:56:06.036Z,22.40
2022-08-25T18:58:34.425Z,22.40
2022-08-25T19:01:04.804Z,22.30
2022-08-25T19:03:33.262Z,22.20
2022-08-25T19:06:02.629Z,22.10
2022-08-25T19:08:30.796Z,22.00
2022-08-25T19:10:59.164Z,22.00
2022-08-25T19:13:27.198Z,21.90
2022-08-25T19:15:55.441Z,21.80
2022-08-25T19:18:25.889Z,21.70
2022-08-25T19:20:58.516Z,21.70
2022-08-25T19:23:28.461Z,21.60
2022-08-25T19:25:56.700Z,21.50
2022-08-25T19:28:27.123Z,21.40
2022-08-25T19:30:55.613Z,21.30
2022-08-25T19:33:42.129Z,21.30
2022-08-25T19:36:11.733Z,21.20
2022-08-25T19:38:41.984Z,21.20
2022-08-25T19:41:14.548Z,21.10
2022-08-25T19:43:50.615Z,21.10
2022-08-25T19:46:25.204Z,21.00
2022-08-25T19:48:53.378Z,20.90
2022-08-25T19:51:21.900Z,20.90
2022-08-25T19:53:55.769Z,20.90
2022-08-25T19:56:25.993Z,20.80
2022-08-25T19:58:53.967Z,20.80
2022-08-25T20:01:23.247Z,20.70
2022-08-25T20:03:52.390Z,20.70
2022-08-25T20:06:20.814Z,20.60
2022-08-25T20:08:48.754Z,20.60
2022-08-25T20:11:29.244Z,20.50
2022-08-25T20:14:00.436Z,20.50
2022-08-25T20:16:31.623Z,20.40
2022-08-25T20:19:00.285Z,20.30
2022-08-25T20:21:30.834Z,20.30
2022-08-25T20:24:16.485Z,20.30
2022-08-25T20:26:45.945Z,20.20
2022-08-25T20:29:14.453Z,20.20
2022-08-25T20:31:43.715Z,20.10
2022-08-25T20:34:11.677Z,20.00
2022-08-25T20:36:41.674Z,20.00
2022-08-25T20:39:20.242Z,19.90
2022-08-25T20:41:49.865Z,19.90
2022-08-25T20:44:19.294Z,19.90
2022-08-25T20:46:51.935Z,19.80
2022-08-25T20:49:25.781Z,19.80
2022-08-25T20:51:54.091Z,19.70
2022-08-25T20:54:25.015Z,19.60
2022-08-25T20:56:56.001Z,19.60
2022-08-25T20:59:25.217Z,19.60
2022-08-25T21:01:54.328Z,19.50
2022-08-25T21:04:24.729Z,19.50
2022-08-25T21:06:53.269Z,19.40
2022-08-25T21:09:24.012Z,19.40
2022-08-25T21:11:56.465Z,19.40
2022-08-25T21:14:26.341Z,19.30
2022-08-25T21:16:55.324Z,19.30
2022-08-25T21:19:33.963Z,19.30
2022-08-25T21:22:02.121Z,19.30
2022-08-25T21:24:30.219Z,19.30
2022-08-25T21:27:00.897Z,19.20
2022-08-25T21:29:32.007Z,19.20
2022-08-25T21:32:00.511Z,19.10
2022-08-25T21:34:29.517Z,19.10
2022-08-25T21:36:58.375Z,19.10
2022-08-25T21:39:32.047Z,19.00
2022-08-25T21:42:02.657Z,19.00
2022-08-25T21:44:31.434Z,19.10
2022-08-25T21:46:59.535Z,19.00
2022-08-25T21:49:27.504Z,19.00
2022-08-25T21:52:00.951Z,18.90
2022-08-25T21:54:30.186Z,19.00
2022-08-25T21:57:00.179Z,19.00
2022-08-25T21:59:35.375Z,18.90
2022-08-25T22:02:06.388Z,18.90
2022-08-25T22:04:34.873Z,18.90
2022-08-25T22:07:02.934Z,18.90
2022-08-25T22:09:31.399Z,18.80
2022-08-25T22:11:59.408Z,18.80
2022-08-25T22:14:29.143Z,18.80
2022-08-25T22:16:57.130Z,18.80
2022-08-25T22:19:25.518Z,18.80
2022-08-25T22:21:54.668Z,18.70
2022-08-25T22:24:23.152Z,18.70
2022-08-25T22:26:57.107Z,18.70
2022-08-25T22:29:26.514Z,18.70
2022-08-25T22:31:59.344Z,18.70
2022-08-25T22:34:30.517Z,18.80
2022-08-25T22:37:00.708Z,18.70
2022-08-25T22:39:28.915Z,18.80
2022-08-25T22:41:57.324Z,18.70
2022-08-25T22:44:25.737Z,18.70
2022-08-25T22:46:55.700Z,18.70
2022-08-25T22:49:24.172Z,18.70
2022-08-25T22:51:53.742Z,18.70
2022-08-25T22:54:25.310Z,18.70
2022-08-25T22:56:54.386Z,18.80
2022-08-25T22:59:22.693Z,18.90
2022-08-25T23:01:52.534Z,18.90
2022-08-25T23:04:25.169Z,19.00
2022-08-25T23:06:53.401Z,19.10
2022-08-25T23:09:22.017Z,19.10
2022-08-25T23:11:51.328Z,19.20
2022-08-25T23:14:20.043Z,19.20
2022-08-25T23:16:50.531Z,19.30
2022-08-25T23:19:19.179Z,19.40
2022-08-25T23:22:06.666Z,19.40
2022-08-25T23:24:35.264Z,19.40
2022-08-25T23:27:04.740Z,19.50
2022-08-25T23:29:34.339Z,19.50
2022-08-25T23:32:02.811Z,19.50
2022-08-25T23:34:30.924Z,19.50
2022-08-25T23:37:04.062Z,19.60
2022-08-25T23:39:31.842Z,19.70
2022-08-25T23:41:59.910Z,19.80
2022-08-25T23:44:28.141Z,19.70
2022-08-25T23:46:56.640Z,19.80
2022-08-25T23:49:26.151Z,19.80
2022-08-25T23:51:56.177Z,19.80
2022-08-25T23:54:31.104Z,19.80
2022-08-25T23:56:59.890Z,19.90
2022-08-25T23:59:29.695Z,19.90
